Aérodrome :
LOGIN :

S'inscrire | Disclaimer

   EN    FR    IT 

 










Légende :    VFR   VFR Marginal   IFR   IFR Intensif   IFR Très Intensif
Visi : 
Plafond : 
>= 8 km
>= 3000ft
5 à 8 km
1000 à 3000 ft
1500m à 5 km
500 à 1000 ft
800 à 1500m
200 à 500 ft
< 800m
< 200 ft
Symboles :   Orages  Brouillard  Fortes neiges  Fortes précipitations  Vent > 20 kt
SIGMETs :   Divers  Orages  Givrage  Turbulence  Onde Orograph.  Cendres Volcan.







- Altitude de l'aérodrome : 26 ft


ETNT - Wittmundhaven AB

DERNIER METAR :
  • 231420Z 32011KT 9999 BKN020 13/09 Q1015 WHT GRN TEMPO BLU

METARs EXPIRÉS :
  • 231320Z 33011KT 9999 BKN014 13/10 Q1014 GRN GRN TEMPO BLU
  • 231220Z 33014KT 9999 BKN012 14/11 Q1012 GRN GRN TEMPO WHT

TAF TAF ETNT
Valide du 23 à 14h jusqu'au 23 à 23h UTC


231312Z 2314/2323 33010KT 9999 NSW BKN010
TEMPO 2314/2317 35012G22KT 9999 NSW SCT010 BKN025
BECMG 2317/2319 23005KT 6000 NSW SCT007 BKN015
TEMPO 2319/2323 VRB03KT 3000 BR BKN007 BY ETGL
Pas de NOTAMs connus pour ce terrain.



MET'MAP, la Météo Aéronautique d'un coup d'oeil ! - Copyright ORBIFLY Décembre 2007 - Disclaimer

ORBIFLY MET'MAP TEAM :

Programmation & Développement : Alexandra Zaïnal
Conception & Développement : Baudouin d'Aumeries
Co-Programmation & Développement : Marc-Olivier Méhu
Soutien technique & logistique : Manuel Goepfert

Contact : metmap@orbifly.com




SOURCES & CREDITS :

   NOAA